createdAt,value
2023-10-29T00:02:14.226Z,1.63
2023-10-29T00:04:41.566Z,1.63
2023-10-29T00:07:09.171Z,1.45
2023-10-29T00:09:36.393Z,3.97
2023-10-29T00:12:03.836Z,2.50
2023-10-29T00:14:32.321Z,2.80
2023-10-29T00:16:59.960Z,4.00
2023-10-29T00:19:27.164Z,2.47
2023-10-29T00:21:54.321Z,2.90
2023-10-29T00:24:23.383Z,3.75
2023-10-29T00:26:51.473Z,4.35
2023-10-29T00:29:19.049Z,5.35
2023-10-29T00:31:46.346Z,4.57
2023-10-29T00:34:13.859Z,6.38
2023-10-29T00:36:41.172Z,4.03
2023-10-29T00:39:08.807Z,3.42
2023-10-29T00:41:36.099Z,3.92
2023-10-29T00:44:03.756Z,5.72
2023-10-29T00:46:31.709Z,5.25
2023-10-29T00:48:59.816Z,5.25
2023-10-29T00:51:27.502Z,5.82
2023-10-29T00:53:55.064Z,4.95
2023-10-29T00:56:23.018Z,7.00
2023-10-29T00:58:52.626Z,5.15
2023-10-29T01:01:20.643Z,4.00
2023-10-29T01:03:48.161Z,9.20
2023-10-29T01:06:16.702Z,6.90
2023-10-29T01:08:44.264Z,3.58
2023-10-29T01:11:11.544Z,5.80
2023-10-29T01:13:40.033Z,5.20
2023-10-29T01:16:07.938Z,6.60
2023-10-29T01:18:35.787Z,7.63
2023-10-29T01:21:03.438Z,6.10
2023-10-29T01:23:31.975Z,7.28
2023-10-29T01:25:59.464Z,8.80
2023-10-29T01:28:27.031Z,8.88
2023-10-29T01:30:54.482Z,12.80
2023-10-29T01:33:21.881Z,7.20
2023-10-29T01:35:49.630Z,9.60
2023-10-29T01:38:19.570Z,13.18
2023-10-29T01:40:46.788Z,12.48
2023-10-29T01:43:14.132Z,11.02
2023-10-29T01:45:42.024Z,9.13
2023-10-29T01:48:09.306Z,8.20
2023-10-29T01:50:37.334Z,9.57
2023-10-29T01:53:04.690Z,13.23
2023-10-29T01:55:36.253Z,11.40
2023-10-29T01:58:03.994Z,8.75
2023-10-29T02:00:31.544Z,8.45
2023-10-29T02:02:58.859Z,10.77
2023-10-29T02:05:26.150Z,15.15
2023-10-29T02:07:53.414Z,13.65
2023-10-29T02:10:21.139Z,9.18
2023-10-29T02:12:50.012Z,8.45
2023-10-29T02:15:17.184Z,10.00
2023-10-29T02:17:44.471Z,14.18
2023-10-29T02:20:13.174Z,10.45
2023-10-29T02:22:41.669Z,12.35
2023-10-29T02:25:09.316Z,11.15
2023-10-29T02:27:36.533Z,13.98
2023-10-29T02:30:04.171Z,19.10
2023-10-29T02:32:31.457Z,11.60
2023-10-29T02:34:58.718Z,13.05
2023-10-29T02:37:25.961Z,14.95
2023-10-29T02:39:53.240Z,12.32
2023-10-29T02:42:20.911Z,14.32
2023-10-29T02:44:49.092Z,12.55
2023-10-29T02:47:16.508Z,22.52
2023-10-29T02:49:43.729Z,12.93
2023-10-29T02:52:11.752Z,15.23
2023-10-29T02:54:39.326Z,14.45
2023-10-29T02:57:06.537Z,12.68
2023-10-29T02:59:34.005Z,19.13
2023-10-29T03:02:02.068Z,12.82
2023-10-29T03:04:29.318Z,13.63
2023-10-29T03:06:57.899Z,18.73
2023-10-29T03:09:25.203Z,12.63
2023-10-29T03:11:52.505Z,15.30
2023-10-29T03:14:19.735Z,12.75
2023-10-29T03:16:47.120Z,18.52
2023-10-29T03:19:14.389Z,13.57
2023-10-29T03:21:41.650Z,12.05
2023-10-29T03:24:09.102Z,13.52
2023-10-29T03:26:36.489Z,13.55
2023-10-29T03:29:03.984Z,21.67
2023-10-29T03:31:31.294Z,13.27
2023-10-29T03:33:58.721Z,17.30
2023-10-29T03:36:25.884Z,15.63
2023-10-29T03:38:53.136Z,18.15
2023-10-29T03:41:23.770Z,12.75
2023-10-29T03:43:51.071Z,18.98
2023-10-29T03:46:19.607Z,13.55
2023-10-29T03:48:47.241Z,18.35
2023-10-29T03:51:15.817Z,21.70
2023-10-29T03:53:43.100Z,17.90
2023-10-29T03:56:10.476Z,24.00
2023-10-29T03:58:37.744Z,18.40
2023-10-29T04:01:05.123Z,22.30
2023-10-29T04:03:32.603Z,17.75
2023-10-29T04:06:00.067Z,19.15
2023-10-29T04:08:27.363Z,20.13
2023-10-29T04:10:54.563Z,17.75
2023-10-29T04:13:22.043Z,25.85
2023-10-29T04:15:49.342Z,25.60
2023-10-29T04:18:17.767Z,21.75
2023-10-29T04:20:45.220Z,17.27
2023-10-29T04:23:12.448Z,16.00
2023-10-29T04:25:40.079Z,21.00
2023-10-29T04:28:07.292Z,24.10
2023-10-29T04:30:34.598Z,17.63
2023-10-29T04:33:02.090Z,16.85
2023-10-29T04:35:30.298Z,28.63
2023-10-29T04:37:57.595Z,17.30
2023-10-29T04:40:25.025Z,16.92
2023-10-29T04:42:52.246Z,22.80
2023-10-29T04:45:19.469Z,19.73
2023-10-29T04:47:46.749Z,19.05
2023-10-29T04:50:13.974Z,19.35
2023-10-29T04:52:41.256Z,20.38
2023-10-29T04:55:10.061Z,25.65
2023-10-29T04:57:37.708Z,20.58
2023-10-29T05:00:06.333Z,22.25
2023-10-29T05:02:34.198Z,22.85
2023-10-29T05:05:01.588Z,19.85
2023-10-29T05:07:29.054Z,22.45
2023-10-29T05:09:56.347Z,28.15
2023-10-29T05:12:23.538Z,26.55
2023-10-29T05:14:53.966Z,22.55
2023-10-29T05:17:21.220Z,23.98
2023-10-29T05:19:48.451Z,24.98
2023-10-29T05:22:15.869Z,23.17
2023-10-29T05:24:44.242Z,23.33
2023-10-29T05:27:11.472Z,25.15
2023-10-29T05:29:38.809Z,27.17
2023-10-29T05:32:06.906Z,19.70
2023-10-29T05:34:34.786Z,25.90
2023-10-29T05:37:02.030Z,20.25
2023-10-29T05:39:29.420Z,20.52
2023-10-29T05:41:56.763Z,22.38
2023-10-29T05:44:24.078Z,21.08
2023-10-29T05:46:51.321Z,25.67
2023-10-29T05:49:18.610Z,27.42
2023-10-29T05:51:45.897Z,22.25
2023-10-29T05:54:13.135Z,25.30
2023-10-29T05:56:40.455Z,25.25
2023-10-29T05:59:07.928Z,16.95
2023-10-29T06:01:35.126Z,20.13
2023-10-29T06:04:02.570Z,22.45
2023-10-29T06:06:30.003Z,22.52
2023-10-29T06:09:00.307Z,16.80
2023-10-29T06:11:31.689Z,20.27
2023-10-29T06:13:59.063Z,17.73
2023-10-29T06:16:26.306Z,22.95
2023-10-29T06:18:53.673Z,16.25
2023-10-29T06:21:21.977Z,21.40
2023-10-29T06:23:50.194Z,22.50
2023-10-29T06:26:17.511Z,24.25
2023-10-29T06:28:44.853Z,18.40
2023-10-29T06:31:12.135Z,17.83
2023-10-29T06:33:40.634Z,24.40
2023-10-29T06:36:08.569Z,17.42
2023-10-29T06:38:36.036Z,19.73
2023-10-29T06:41:03.802Z,22.30
2023-10-29T06:43:31.177Z,24.27
2023-10-29T06:45:58.442Z,17.90
2023-10-29T06:48:25.922Z,19.80
2023-10-29T06:50:53.298Z,18.35
2023-10-29T06:53:20.756Z,19.83
2023-10-29T06:55:48.246Z,22.60
2023-10-29T06:58:15.880Z,21.20
2023-10-29T07:00:43.196Z,17.58
2023-10-29T07:03:10.652Z,23.35
2023-10-29T07:05:38.019Z,18.70
2023-10-29T07:08:05.335Z,19.88
2023-10-29T07:10:32.950Z,19.77
2023-10-29T07:13:00.247Z,20.30
2023-10-29T07:15:27.650Z,20.10
2023-10-29T07:17:54.958Z,20.88
2023-10-29T07:20:22.357Z,18.92
2023-10-29T07:22:49.579Z,19.15
2023-10-29T07:25:16.747Z,17.10
2023-10-29T07:27:43.889Z,17.42
2023-10-29T07:30:11.532Z,17.88
2023-10-29T07:32:39.040Z,21.40
2023-10-29T07:35:06.547Z,20.30
2023-10-29T07:37:34.744Z,16.95
2023-10-29T07:40:01.978Z,14.50
2023-10-29T07:42:29.245Z,15.23
2023-10-29T07:44:56.596Z,24.90
2023-10-29T07:47:23.882Z,19.83
2023-10-29T07:49:51.155Z,13.93
2023-10-29T07:52:18.472Z,19.23
2023-10-29T07:54:45.866Z,15.10
2023-10-29T07:57:13.174Z,21.10
2023-10-29T07:59:40.405Z,23.27
2023-10-29T08:02:07.676Z,15.80
2023-10-29T08:04:34.911Z,10.88
2023-10-29T08:07:02.693Z,21.92
2023-10-29T08:09:29.969Z,14.48
2023-10-29T08:11:57.264Z,18.17
2023-10-29T08:14:24.546Z,16.73
2023-10-29T08:16:52.010Z,13.73
2023-10-29T08:19:19.283Z,17.33
2023-10-29T08:21:46.469Z,19.63
2023-10-29T08:24:13.760Z,14.20
2023-10-29T08:26:40.994Z,14.63
2023-10-29T08:29:08.615Z,11.00
2023-10-29T08:31:36.963Z,11.75
2023-10-29T08:34:04.911Z,14.38
2023-10-29T08:36:32.417Z,10.98
2023-10-29T08:38:59.930Z,13.68
2023-10-29T08:41:27.185Z,12.30
2023-10-29T08:43:54.562Z,10.93
2023-10-29T08:46:22.183Z,10.77
2023-10-29T08:48:49.678Z,8.77
2023-10-29T08:51:17.156Z,8.50
2023-10-29T08:53:44.446Z,6.63
2023-10-29T08:56:11.659Z,10.75
2023-10-29T08:58:39.152Z,9.38
2023-10-29T09:01:10.021Z,9.15
2023-10-29T09:03:37.671Z,7.75
2023-10-29T09:06:05.921Z,6.82
2023-10-29T09:08:37.877Z,7.82
2023-10-29T09:11:05.227Z,8.95
2023-10-29T09:13:32.699Z,7.30
2023-10-29T09:16:00.871Z,7.95
2023-10-29T09:18:28.534Z,8.43
2023-10-29T09:20:56.320Z,8.82
2023-10-29T09:23:24.307Z,5.15
2023-10-29T09:25:51.623Z,8.27
2023-10-29T09:28:18.915Z,5.63
2023-10-29T09:30:46.102Z,6.57
2023-10-29T09:33:14.408Z,8.13
2023-10-29T09:35:42.654Z,6.68
2023-10-29T09:38:10.026Z,6.70
2023-10-29T09:40:37.320Z,9.40
2023-10-29T09:43:05.733Z,8.73
2023-10-29T09:45:36.305Z,9.63
2023-10-29T09:48:06.065Z,5.32
2023-10-29T09:50:35.895Z,4.75
2023-10-29T09:53:04.182Z,8.15
2023-10-29T09:55:33.434Z,6.05
2023-10-29T09:58:00.781Z,4.28
2023-10-29T10:00:28.572Z,5.05
2023-10-29T10:02:59.174Z,9.50
2023-10-29T10:05:29.189Z,5.88
2023-10-29T10:07:56.829Z,6.32
2023-10-29T10:10:43.909Z,4.65
2023-10-29T10:13:11.928Z,6.25
2023-10-29T10:15:39.364Z,8.13
2023-10-29T10:18:07.364Z,6.60
2023-10-29T10:20:37.285Z,6.10
2023-10-29T10:23:06.988Z,5.07
2023-10-29T10:25:35.525Z,6.15
2023-10-29T10:28:04.705Z,3.90
2023-10-29T10:30:39.536Z,5.97
2023-10-29T10:33:17.101Z,7.78
2023-10-29T10:35:46.763Z,6.00
2023-10-29T10:38:15.860Z,5.40
2023-10-29T10:40:43.369Z,6.70
2023-10-29T10:43:10.714Z,6.80
2023-10-29T10:45:38.448Z,5.32
2023-10-29T10:48:07.027Z,6.15
2023-10-29T10:50:35.726Z,7.10
2023-10-29T10:53:04.260Z,5.85
2023-10-29T10:55:50.785Z,7.80
2023-10-29T10:58:19.553Z,8.35
2023-10-29T11:00:50.492Z,3.88
2023-10-29T11:03:31.676Z,5.68
2023-10-29T11:06:00.560Z,4.85
2023-10-29T11:08:27.919Z,5.82
2023-10-29T11:10:55.430Z,4.10
2023-10-29T11:13:23.245Z,6.22
2023-10-29T11:15:50.959Z,5.88
2023-10-29T11:18:33.790Z,7.75
2023-10-29T11:21:06.034Z,4.70
2023-10-29T11:23:34.319Z,8.82
2023-10-29T11:26:28.481Z,5.18
2023-10-29T11:28:56.536Z,6.30
2023-10-29T11:31:26.302Z,6.60
2023-10-29T11:33:56.755Z,8.00
2023-10-29T11:36:34.308Z,12.20
2023-10-29T11:39:17.042Z,6.05
2023-10-29T11:41:48.046Z,6.68
2023-10-29T11:44:22.035Z,6.38
2023-10-29T11:47:04.710Z,6.28
2023-10-29T11:49:47.114Z,7.22
2023-10-29T11:52:14.541Z,6.80
2023-10-29T11:54:41.912Z,10.75
2023-10-29T11:57:09.994Z,4.40
2023-10-29T11:59:56.347Z,9.88
2023-10-29T12:02:24.965Z,7.28
2023-10-29T12:04:52.297Z,7.85
2023-10-29T12:07:26.674Z,7.03
2023-10-29T12:10:09.281Z,6.35
2023-10-29T12:12:36.887Z,10.20
2023-10-29T12:15:05.606Z,5.32
2023-10-29T12:17:34.477Z,7.00
2023-10-29T12:20:01.754Z,8.05
2023-10-29T12:22:30.306Z,7.07
2023-10-29T12:25:02.192Z,7.40
2023-10-29T12:27:31.245Z,6.78
2023-10-29T12:29:58.570Z,9.23
2023-10-29T12:32:27.420Z,6.90
2023-10-29T12:34:55.848Z,11.05
2023-10-29T12:37:28.272Z,5.20
2023-10-29T12:39:57.883Z,7.90
2023-10-29T12:42:54.458Z,7.30
2023-10-29T12:45:25.555Z,5.82
2023-10-29T12:48:12.291Z,3.63
2023-10-29T12:50:51.358Z,11.10
2023-10-29T12:53:22.472Z,9.18
2023-10-29T12:55:49.692Z,11.45
2023-10-29T12:58:17.748Z,6.72
2023-10-29T13:00:45.199Z,6.93
2023-10-29T13:03:12.962Z,8.93
2023-10-29T13:05:40.290Z,9.88
2023-10-29T13:08:07.599Z,12.10
2023-10-29T13:10:37.016Z,10.02
2023-10-29T13:13:05.256Z,9.98
2023-10-29T13:15:32.602Z,10.23
2023-10-29T13:18:00.783Z,8.38
2023-10-29T13:20:30.503Z,11.68
2023-10-29T13:22:58.978Z,11.90
2023-10-29T13:25:26.242Z,11.75
2023-10-29T13:27:53.516Z,11.55
2023-10-29T13:30:20.793Z,13.07
2023-10-29T13:32:48.445Z,10.20
2023-10-29T13:35:17.710Z,13.63
2023-10-29T13:37:45.430Z,9.68
2023-10-29T13:40:12.938Z,12.60
2023-10-29T13:42:40.429Z,9.73
2023-10-29T13:45:07.915Z,13.48
2023-10-29T13:47:35.771Z,11.65
2023-10-29T13:50:03.329Z,9.60
2023-10-29T13:52:30.566Z,8.70
2023-10-29T13:54:58.214Z,9.43
2023-10-29T13:57:25.649Z,8.82
2023-10-29T13:59:53.017Z,9.38
2023-10-29T14:02:20.491Z,7.53
2023-10-29T14:04:47.965Z,8.77
2023-10-29T14:07:15.791Z,10.50
2023-10-29T14:09:43.344Z,7.25
2023-10-29T14:12:12.858Z,7.80
2023-10-29T14:14:40.314Z,12.07
2023-10-29T14:17:08.009Z,7.28
2023-10-29T14:19:36.509Z,14.82
2023-10-29T14:22:03.964Z,11.43
2023-10-29T14:24:31.354Z,20.52
2023-10-29T14:26:59.896Z,13.68
2023-10-29T14:29:27.439Z,17.45
2023-10-29T14:31:55.307Z,7.75
2023-10-29T14:34:22.708Z,14.57
2023-10-29T14:36:50.150Z,13.70
2023-10-29T14:39:17.688Z,13.60
2023-10-29T14:41:47.891Z,16.75
2023-10-29T14:46:43.557Z,15.60
2023-10-29T14:49:10.938Z,16.08
2023-10-29T14:51:39.308Z,9.88
2023-10-29T14:54:07.112Z,12.38
2023-10-29T14:56:34.536Z,17.88
2023-10-29T14:59:02.022Z,8.43
2023-10-29T15:01:30.915Z,10.23
2023-10-29T15:03:58.464Z,13.90
2023-10-29T15:06:25.846Z,11.38
2023-10-29T15:08:53.229Z,11.40
2023-10-29T15:11:33.955Z,13.25
2023-10-29T15:14:06.186Z,12.38
2023-10-29T15:16:36.653Z,14.88
2023-10-29T15:24:01.793Z,10.88
2023-10-29T15:26:29.078Z,11.88
2023-10-29T15:28:56.344Z,9.02
2023-10-29T15:31:23.688Z,11.02
2023-10-29T15:33:50.955Z,11.27
2023-10-29T15:36:19.074Z,13.32
2023-10-29T15:38:46.615Z,11.82
2023-10-29T15:41:14.167Z,12.82
2023-10-29T15:43:41.548Z,15.38
2023-10-29T15:46:10.218Z,9.35
2023-10-29T15:48:38.698Z,12.30
2023-10-29T15:51:09.036Z,14.35
2023-10-29T15:53:37.151Z,15.20
2023-10-29T15:56:12.022Z,21.38
2023-10-29T15:58:43.545Z,27.33
2023-10-29T16:01:18.642Z,14.93
2023-10-29T16:03:48.993Z,15.40
2023-10-29T16:08:44.089Z,15.15
2023-10-29T16:11:24.199Z,10.75
2023-10-29T16:13:51.739Z,14.20
2023-10-29T16:16:19.457Z,11.98
2023-10-29T16:18:46.671Z,11.18
2023-10-29T16:21:13.941Z,12.82
2023-10-29T16:23:41.817Z,13.05
2023-10-29T16:26:09.225Z,13.90
2023-10-29T16:28:36.670Z,13.52
2023-10-29T16:31:06.085Z,18.70
2023-10-29T16:33:33.384Z,19.60
2023-10-29T16:36:02.443Z,15.20
2023-10-29T16:38:30.506Z,12.65
2023-10-29T16:41:05.824Z,11.82
2023-10-29T16:43:33.261Z,15.07
2023-10-29T16:46:01.393Z,14.75
2023-10-29T16:48:29.269Z,13.90
2023-10-29T16:51:03.397Z,12.45
2023-10-29T16:53:31.469Z,14.48
2023-10-29T16:56:09.408Z,14.15
2023-10-29T16:58:36.992Z,13.43
2023-10-29T17:01:04.805Z,13.65
2023-10-29T17:03:32.280Z,11.30
2023-10-29T17:05:59.634Z,13.32
2023-10-29T17:08:26.876Z,19.02
2023-10-29T17:10:58.217Z,16.58
2023-10-29T17:13:28.167Z,17.33
2023-10-29T17:16:05.391Z,15.27
2023-10-29T17:18:33.674Z,10.98
2023-10-29T17:21:02.568Z,17.88
2023-10-29T17:23:30.177Z,16.88
2023-10-29T17:25:57.841Z,14.35
2023-10-29T17:28:25.224Z,20.33
2023-10-29T17:30:52.537Z,19.00
2023-10-29T17:33:20.656Z,18.65
2023-10-29T17:35:48.313Z,19.77
2023-10-29T17:38:15.785Z,17.88
2023-10-29T17:40:43.826Z,16.58
2023-10-29T17:43:12.260Z,18.70
2023-10-29T17:45:39.678Z,13.63
2023-10-29T17:48:07.044Z,14.60
2023-10-29T17:50:34.329Z,13.88
2023-10-29T17:53:01.982Z,18.50
2023-10-29T17:55:29.940Z,17.85
2023-10-29T18:15:00.362Z,21.83
2023-10-29T18:17:27.671Z,21.02
2023-10-29T18:19:54.854Z,20.25
2023-10-29T18:22:22.806Z,23.13
2023-10-29T18:24:50.316Z,16.08
2023-10-29T18:27:17.679Z,13.70
2023-10-29T18:29:45.020Z,20.65
2023-10-29T18:32:12.162Z,17.08
2023-10-29T18:34:39.510Z,23.77
2023-10-29T18:37:06.780Z,17.50
2023-10-29T18:39:34.036Z,19.45
2023-10-29T18:42:01.587Z,19.90
2023-10-29T18:44:31.510Z,18.30
2023-10-29T18:47:00.926Z,29.17
2023-10-29T18:49:28.942Z,18.57
2023-10-29T18:51:57.075Z,20.27
2023-10-29T18:54:24.918Z,15.18
2023-10-29T18:56:53.475Z,21.95
2023-10-29T18:59:22.537Z,28.67
2023-10-29T19:01:49.841Z,22.27
2023-10-29T19:04:17.268Z,21.98
2023-10-29T19:06:44.568Z,19.95
2023-10-29T19:09:12.281Z,24.92
2023-10-29T19:11:39.641Z,34.85
2023-10-29T19:14:06.797Z,24.27
2023-10-29T19:16:34.644Z,25.27
2023-10-29T19:19:05.083Z,23.08
2023-10-29T19:21:32.329Z,27.92
2023-10-29T19:24:00.031Z,22.20
2023-10-29T19:26:27.251Z,24.35
2023-10-29T19:28:54.735Z,20.88
2023-10-29T19:31:26.815Z,26.85
2023-10-29T19:33:55.577Z,21.30
2023-10-29T19:36:23.198Z,22.70
2023-10-29T19:38:50.456Z,27.15
2023-10-29T19:41:17.810Z,22.27
2023-10-29T19:43:45.312Z,23.00
2023-10-29T19:46:13.031Z,22.85
2023-10-29T19:48:40.402Z,21.02
2023-10-29T19:51:08.903Z,18.85
2023-10-29T19:53:37.260Z,28.27
2023-10-29T19:56:08.052Z,21.15
2023-10-29T19:58:35.696Z,23.33
2023-10-29T20:01:05.418Z,28.33
2023-10-29T20:03:33.500Z,23.35
2023-10-29T20:06:08.487Z,19.67
2023-10-29T20:08:36.820Z,23.02
2023-10-29T20:11:13.058Z,30.65
2023-10-29T20:13:42.564Z,20.80
2023-10-29T20:16:10.345Z,21.98
2023-10-29T20:18:38.089Z,26.30
2023-10-29T20:21:09.964Z,23.85
2023-10-29T20:23:37.623Z,21.80
2023-10-29T20:26:16.233Z,23.42
2023-10-29T20:28:43.571Z,21.38
2023-10-29T20:31:11.062Z,24.48
2023-10-29T20:33:39.197Z,19.02
2023-10-29T20:36:06.716Z,24.45
2023-10-29T20:38:36.017Z,21.75
2023-10-29T20:41:09.819Z,24.90
2023-10-29T20:43:38.000Z,19.35
2023-10-29T20:46:05.410Z,27.60
2023-10-29T20:48:33.697Z,23.48
2023-10-29T20:51:10.486Z,26.73
2023-10-29T20:53:37.787Z,18.33
2023-10-29T20:56:05.745Z,23.13
2023-10-29T20:58:33.097Z,21.48
2023-10-29T21:01:03.119Z,27.48
2023-10-29T21:03:30.395Z,39.22
2023-10-29T21:05:59.195Z,25.85
2023-10-29T21:08:26.810Z,27.75
2023-10-29T21:11:09.786Z,28.02
2023-10-29T21:13:37.476Z,20.15
2023-10-29T21:16:08.558Z,20.35
2023-10-29T21:18:36.493Z,20.40
2023-10-29T21:21:07.487Z,21.77
2023-10-29T21:23:35.184Z,16.73
2023-10-29T21:26:02.429Z,19.70
2023-10-29T21:28:29.829Z,22.45
2023-10-29T21:30:57.218Z,22.25
2023-10-29T21:33:24.466Z,22.35
2023-10-29T21:35:52.088Z,22.95
2023-10-29T21:38:19.796Z,22.70
2023-10-29T21:40:47.022Z,22.73
2023-10-29T21:43:14.256Z,18.60
2023-10-29T21:45:41.926Z,24.77
2023-10-29T21:48:09.918Z,20.73
2023-10-29T21:50:40.204Z,22.90
2023-10-29T21:53:08.657Z,23.30
2023-10-29T21:55:38.855Z,19.20
2023-10-29T21:58:09.837Z,28.38
2023-10-29T22:00:37.476Z,27.00
2023-10-29T22:03:05.752Z,25.92
2023-10-29T22:05:33.649Z,19.50
2023-10-29T22:08:08.233Z,17.75
2023-10-29T22:10:35.420Z,18.67
2023-10-29T22:13:02.646Z,22.15
2023-10-29T22:15:29.920Z,27.13
2023-10-29T22:17:57.295Z,16.95
2023-10-29T22:20:25.233Z,22.10
2023-10-29T22:22:53.843Z,17.73
2023-10-29T22:25:21.002Z,21.92
2023-10-29T22:27:48.227Z,18.10
2023-10-29T22:30:15.535Z,17.13
2023-10-29T22:32:42.790Z,20.92
2023-10-29T22:35:10.068Z,17.58
2023-10-29T22:37:37.358Z,20.23
2023-10-29T22:40:07.273Z,20.60
2023-10-29T22:42:35.218Z,18.75
2023-10-29T22:45:22.526Z,20.50
2023-10-29T22:47:58.902Z,15.85
2023-10-29T22:50:26.189Z,24.38
2023-10-29T22:52:56.387Z,19.90
2023-10-29T22:57:53.963Z,15.73
2023-10-29T23:00:26.158Z,19.35
2023-10-29T23:02:54.542Z,16.30
2023-10-29T23:05:39.835Z,19.65
2023-10-29T23:08:07.075Z,19.45
2023-10-29T23:10:35.269Z,15.60
2023-10-29T23:13:08.267Z,15.25
2023-10-29T23:15:38.594Z,17.27
2023-10-29T23:18:06.270Z,20.23
2023-10-29T23:20:58.257Z,17.90
2023-10-29T23:23:26.249Z,16.85
2023-10-29T23:25:53.542Z,20.30
2023-10-29T23:28:34.226Z,14.38
2023-10-29T23:31:04.486Z,14.95
2023-10-29T23:33:31.989Z,15.82
2023-10-29T23:35:59.237Z,17.20
2023-10-29T23:38:26.484Z,17.08
2023-10-29T23:40:57.829Z,15.70
2023-10-29T23:43:27.068Z,12.25
2023-10-29T23:45:54.315Z,16.17
2023-10-29T23:48:21.782Z,15.13
2023-10-29T23:50:49.073Z,17.42
2023-10-29T23:53:16.514Z,18.50
2023-10-29T23:55:43.813Z,17.15
2023-10-29T23:58:11.025Z,17.45
